sensor_id;sensor_type;location;lat;lon;timestamp;P1;durP1;ratioP1;P2;durP2;ratioP2
68744;SDS011;66104;45.456;11.064;2023-04-24T00:00:41;7.70;;;4.80;;
68744;SDS011;66104;45.456;11.064;2023-04-24T00:03:19;7.80;;;5.30;;
68744;SDS011;66104;45.456;11.064;2023-04-24T00:05:55;6.20;;;5.20;;
68744;SDS011;66104;45.456;11.064;2023-04-24T00:08:32;6.80;;;5.70;;
68744;SDS011;66104;45.456;11.064;2023-04-24T00:11:09;6.80;;;5.30;;
68744;SDS011;66104;45.456;11.064;2023-04-24T00:13:47;7.40;;;5.50;;
68744;SDS011;66104;45.456;11.064;2023-04-24T00:16:24;7.40;;;4.90;;
68744;SDS011;66104;45.456;11.064;2023-04-24T00:19:03;7.90;;;5.20;;
68744;SDS011;66104;45.456;11.064;2023-04-24T00:21:41;8.40;;;5.70;;
68744;SDS011;66104;45.456;11.064;2023-04-24T00:24:22;6.70;;;5.20;;
68744;SDS011;66104;45.456;11.064;2023-04-24T00:26:59;8.30;;;5.50;;
68744;SDS011;66104;45.456;11.064;2023-04-24T00:29:38;8.00;;;6.00;;
68744;SDS011;66104;45.456;11.064;2023-04-24T00:32:15;8.00;;;5.50;;
68744;SDS011;66104;45.456;11.064;2023-04-24T00:34:52;7.80;;;6.10;;
68744;SDS011;66104;45.456;11.064;2023-04-24T00:37:29;7.50;;;6.10;;
68744;SDS011;66104;45.456;11.064;2023-04-24T00:40:09;8.40;;;5.30;;
68744;SDS011;66104;45.456;11.064;2023-04-24T00:42:47;7.50;;;5.50;;
68744;SDS011;66104;45.456;11.064;2023-04-24T00:45:25;9.50;;;5.60;;
68744;SDS011;66104;45.456;11.064;2023-04-24T00:48:02;7.10;;;5.60;;
68744;SDS011;66104;45.456;11.064;2023-04-24T00:50:41;7.50;;;5.60;;
68744;SDS011;66104;45.456;11.064;2023-04-24T00:53:19;8.00;;;5.30;;
68744;SDS011;66104;45.456;11.064;2023-04-24T00:55:56;7.10;;;5.20;;
68744;SDS011;66104;45.456;11.064;2023-04-24T00:58:34;6.70;;;5.60;;
68744;SDS011;66104;45.456;11.064;2023-04-24T01:01:12;8.30;;;6.00;;
68744;SDS011;66104;45.456;11.064;2023-04-24T01:03:48;8.40;;;6.40;;
68744;SDS011;66104;45.456;11.064;2023-04-24T01:06:29;8.10;;;5.90;;
68744;SDS011;66104;45.456;11.064;2023-04-24T01:09:06;8.80;;;6.60;;
68744;SDS011;66104;45.456;11.064;2023-04-24T01:11:43;8.40;;;6.60;;
68744;SDS011;66104;45.456;11.064;2023-04-24T01:14:20;9.60;;;6.40;;
68744;SDS011;66104;45.456;11.064;2023-04-24T01:16:57;10.10;;;6.40;;
68744;SDS011;66104;45.456;11.064;2023-04-24T01:19:34;8.20;;;6.50;;
68744;SDS011;66104;45.456;11.064;2023-04-24T01:22:13;9.90;;;6.10;;
68744;SDS011;66104;45.456;11.064;2023-04-24T01:24:51;8.20;;;5.60;;
68744;SDS011;66104;45.456;11.064;2023-04-24T01:27:28;9.60;;;7.20;;
68744;SDS011;66104;45.456;11.064;2023-04-24T01:30:06;10.20;;;7.20;;
68744;SDS011;66104;45.456;11.064;2023-04-24T01:32:49;10.30;;;7.20;;
68744;SDS011;66104;45.456;11.064;2023-04-24T01:35:25;10.80;;;7.80;;
68744;SDS011;66104;45.456;11.064;2023-04-24T01:38:02;12.30;;;7.70;;
68744;SDS011;66104;45.456;11.064;2023-04-24T01:40:39;10.20;;;7.00;;
68744;SDS011;66104;45.456;11.064;2023-04-24T01:43:17;11.50;;;7.10;;
68744;SDS011;66104;45.456;11.064;2023-04-24T01:45:54;11.10;;;7.70;;
68744;SDS011;66104;45.456;11.064;2023-04-24T01:48:30;11.80;;;8.80;;
68744;SDS011;66104;45.456;11.064;2023-04-24T01:51:08;10.70;;;8.20;;
68744;SDS011;66104;45.456;11.064;2023-04-24T01:53:44;11.50;;;8.30;;
68744;SDS011;66104;45.456;11.064;2023-04-24T01:56:22;14.20;;;8.90;;
68744;SDS011;66104;45.456;11.064;2023-04-24T01:59:03;13.00;;;8.80;;
68744;SDS011;66104;45.456;11.064;2023-04-24T02:01:39;11.90;;;8.20;;
68744;SDS011;66104;45.456;11.064;2023-04-24T02:04:16;10.70;;;8.10;;
68744;SDS011;66104;45.456;11.064;2023-04-24T02:06:53;14.50;;;10.50;;
68744;SDS011;66104;45.456;11.064;2023-04-24T02:09:29;13.20;;;10.00;;
68744;SDS011;66104;45.456;11.064;2023-04-24T02:12:06;13.70;;;10.20;;
68744;SDS011;66104;45.456;11.064;2023-04-24T02:14:43;14.30;;;11.50;;
68744;SDS011;66104;45.456;11.064;2023-04-24T02:17:20;13.70;;;9.30;;
68744;SDS011;66104;45.456;11.064;2023-04-24T02:19:56;14.30;;;10.00;;
68744;SDS011;66104;45.456;11.064;2023-04-24T02:22:33;11.90;;;9.70;;
68744;SDS011;66104;45.456;11.064;2023-04-24T02:25:11;14.70;;;10.90;;
68744;SDS011;66104;45.456;11.064;2023-04-24T02:27:47;9.50;;;7.70;;
68744;SDS011;66104;45.456;11.064;2023-04-24T02:30:24;10.60;;;7.20;;
68744;SDS011;66104;45.456;11.064;2023-04-24T02:33:01;12.30;;;8.50;;
68744;SDS011;66104;45.456;11.064;2023-04-24T02:35:38;12.60;;;9.50;;
68744;SDS011;66104;45.456;11.064;2023-04-24T02:38:15;11.40;;;8.20;;
68744;SDS011;66104;45.456;11.064;2023-04-24T02:40:51;12.40;;;8.60;;
68744;SDS011;66104;45.456;11.064;2023-04-24T02:43:29;9.70;;;7.60;;
68744;SDS011;66104;45.456;11.064;2023-04-24T02:46:07;12.30;;;8.70;;
68744;SDS011;66104;45.456;11.064;2023-04-24T02:48:44;10.70;;;8.20;;
68744;SDS011;66104;45.456;11.064;2023-04-24T02:51:21;11.60;;;9.20;;
68744;SDS011;66104;45.456;11.064;2023-04-24T02:53:57;13.00;;;9.00;;
68744;SDS011;66104;45.456;11.064;2023-04-24T02:56:33;11.90;;;9.40;;
68744;SDS011;66104;45.456;11.064;2023-04-24T02:59:10;11.70;;;9.30;;
68744;SDS011;66104;45.456;11.064;2023-04-24T03:01:46;11.60;;;7.80;;
68744;SDS011;66104;45.456;11.064;2023-04-24T03:04:23;12.00;;;8.50;;
68744;SDS011;66104;45.456;11.064;2023-04-24T03:07:01;10.20;;;8.40;;
68744;SDS011;66104;45.456;11.064;2023-04-24T03:09:41;14.30;;;10.00;;
68744;SDS011;66104;45.456;11.064;2023-04-24T03:12:18;12.00;;;9.30;;
68744;SDS011;66104;45.456;11.064;2023-04-24T03:14:55;12.70;;;10.00;;
68744;SDS011;66104;45.456;11.064;2023-04-24T03:17:31;14.20;;;9.60;;
68744;SDS011;66104;45.456;11.064;2023-04-24T03:20:12;12.60;;;9.90;;
68744;SDS011;66104;45.456;11.064;2023-04-24T03:22:48;14.80;;;10.30;;
68744;SDS011;66104;45.456;11.064;2023-04-24T03:25:26;12.40;;;9.20;;
68744;SDS011;66104;45.456;11.064;2023-04-24T03:28:02;13.00;;;8.80;;
68744;SDS011;66104;45.456;11.064;2023-04-24T03:30:45;11.00;;;9.00;;
68744;SDS011;66104;45.456;11.064;2023-04-24T03:33:21;12.20;;;9.00;;
68744;SDS011;66104;45.456;11.064;2023-04-24T03:36:03;11.00;;;9.00;;
68744;SDS011;66104;45.456;11.064;2023-04-24T03:38:43;9.30;;;7.80;;
68744;SDS011;66104;45.456;11.064;2023-04-24T03:41:25;13.50;;;9.30;;
68744;SDS011;66104;45.456;11.064;2023-04-24T03:44:12;11.90;;;9.90;;
68744;SDS011;66104;45.456;11.064;2023-04-24T03:46:48;13.40;;;9.10;;
68744;SDS011;66104;45.456;11.064;2023-04-24T03:49:26;13.30;;;10.00;;
68744;SDS011;66104;45.456;11.064;2023-04-24T03:52:02;13.70;;;10.00;;
68744;SDS011;66104;45.456;11.064;2023-04-24T03:54:39;14.10;;;10.00;;
68744;SDS011;66104;45.456;11.064;2023-04-24T03:57:15;12.70;;;9.60;;
68744;SDS011;66104;45.456;11.064;2023-04-24T04:00:04;13.70;;;9.90;;
68744;SDS011;66104;45.456;11.064;2023-04-24T04:02:46;14.50;;;10.60;;
68744;SDS011;66104;45.456;11.064;2023-04-24T04:05:24;12.70;;;9.40;;
68744;SDS011;66104;45.456;11.064;2023-04-24T04:08:01;13.20;;;9.30;;
68744;SDS011;66104;45.456;11.064;2023-04-24T04:10:37;14.30;;;9.80;;
68744;SDS011;66104;45.456;11.064;2023-04-24T04:13:14;11.60;;;9.10;;
68744;SDS011;66104;45.456;11.064;2023-04-24T04:15:50;11.90;;;8.60;;
68744;SDS011;66104;45.456;11.064;2023-04-24T04:18:28;11.10;;;8.30;;
68744;SDS011;66104;45.456;11.064;2023-04-24T04:21:06;14.90;;;9.70;;
68744;SDS011;66104;45.456;11.064;2023-04-24T04:23:43;13.40;;;9.00;;
68744;SDS011;66104;45.456;11.064;2023-04-24T04:26:25;11.40;;;9.50;;
68744;SDS011;66104;45.456;11.064;2023-04-24T04:29:08;13.20;;;9.30;;
68744;SDS011;66104;45.456;11.064;2023-04-24T04:31:48;14.00;;;10.10;;
68744;SDS011;66104;45.456;11.064;2023-04-24T04:34:26;13.10;;;10.70;;
68744;SDS011;66104;45.456;11.064;2023-04-24T04:37:04;13.00;;;10.20;;
68744;SDS011;66104;45.456;11.064;2023-04-24T04:40:02;12.00;;;9.40;;
68744;SDS011;66104;45.456;11.064;2023-04-24T04:42:49;10.80;;;7.80;;
68744;SDS011;66104;45.456;11.064;2023-04-24T04:45:27;10.20;;;7.80;;
68744;SDS011;66104;45.456;11.064;2023-04-24T04:48:22;9.30;;;6.90;;
68744;SDS011;66104;45.456;11.064;2023-04-24T04:51:01;8.70;;;6.60;;
68744;SDS011;66104;45.456;11.064;2023-04-24T04:53:39;9.50;;;7.80;;
68744;SDS011;66104;45.456;11.064;2023-04-24T04:56:15;8.40;;;7.30;;
68744;SDS011;66104;45.456;11.064;2023-04-24T04:58:53;8.90;;;7.40;;
68744;SDS011;66104;45.456;11.064;2023-04-24T05:01:30;9.70;;;7.50;;
68744;SDS011;66104;45.456;11.064;2023-04-24T05:04:07;9.60;;;7.20;;
68744;SDS011;66104;45.456;11.064;2023-04-24T05:06:44;10.10;;;7.50;;
68744;SDS011;66104;45.456;11.064;2023-04-24T05:09:23;8.30;;;6.70;;
68744;SDS011;66104;45.456;11.064;2023-04-24T05:12:06;10.50;;;6.70;;
68744;SDS011;66104;45.456;11.064;2023-04-24T05:14:48;6.80;;;4.40;;
68744;SDS011;66104;45.456;11.064;2023-04-24T05:17:25;4.40;;;3.40;;
68744;SDS011;66104;45.456;11.064;2023-04-24T05:20:02;4.50;;;3.10;;
68744;SDS011;66104;45.456;11.064;2023-04-24T05:22:41;3.50;;;2.20;;
68744;SDS011;66104;45.456;11.064;2023-04-24T05:25:19;3.30;;;1.90;;
68744;SDS011;66104;45.456;11.064;2023-04-24T05:28:01;2.10;;;1.50;;
68744;SDS011;66104;45.456;11.064;2023-04-24T05:30:38;3.90;;;1.40;;
68744;SDS011;66104;45.456;11.064;2023-04-24T05:33:15;2.30;;;1.30;;
68744;SDS011;66104;45.456;11.064;2023-04-24T05:35:50;3.20;;;1.60;;
68744;SDS011;66104;45.456;11.064;2023-04-24T05:38:28;2.40;;;1.40;;
68744;SDS011;66104;45.456;11.064;2023-04-24T05:41:05;2.60;;;1.20;;
68744;SDS011;66104;45.456;11.064;2023-04-24T05:43:42;1.80;;;1.20;;
68744;SDS011;66104;45.456;11.064;2023-04-24T05:46:18;3.20;;;1.40;;
68744;SDS011;66104;45.456;11.064;2023-04-24T05:48:55;2.50;;;1.50;;
68744;SDS011;66104;45.456;11.064;2023-04-24T05:51:32;2.80;;;1.50;;
68744;SDS011;66104;45.456;11.064;2023-04-24T05:54:09;1.80;;;1.30;;
68744;SDS011;66104;45.456;11.064;2023-04-24T05:56:45;2.60;;;1.30;;
68744;SDS011;66104;45.456;11.064;2023-04-24T05:59:31;3.10;;;1.50;;
68744;SDS011;66104;45.456;11.064;2023-04-24T06:02:11;2.90;;;1.40;;
68744;SDS011;66104;45.456;11.064;2023-04-24T06:04:49;2.50;;;1.40;;
68744;SDS011;66104;45.456;11.064;2023-04-24T06:07:25;2.40;;;1.20;;
68744;SDS011;66104;45.456;11.064;2023-04-24T06:10:05;1.80;;;1.30;;
68744;SDS011;66104;45.456;11.064;2023-04-24T06:12:45;2.60;;;1.20;;
68744;SDS011;66104;45.456;11.064;2023-04-24T06:15:22;3.20;;;1.40;;
68744;SDS011;66104;45.456;11.064;2023-04-24T06:18:02;1.90;;;1.20;;
68744;SDS011;66104;45.456;11.064;2023-04-24T06:20:39;2.40;;;1.20;;
68744;SDS011;66104;45.456;11.064;2023-04-24T06:23:15;2.20;;;1.00;;
68744;SDS011;66104;45.456;11.064;2023-04-24T06:25:51;1.90;;;1.10;;
68744;SDS011;66104;45.456;11.064;2023-04-24T06:28:28;2.80;;;1.30;;
68744;SDS011;66104;45.456;11.064;2023-04-24T06:31:04;3.50;;;1.10;;
68744;SDS011;66104;45.456;11.064;2023-04-24T06:33:42;2.00;;;1.20;;
68744;SDS011;66104;45.456;11.064;2023-04-24T06:36:19;1.80;;;1.00;;
68744;SDS011;66104;45.456;11.064;2023-04-24T06:38:56;1.70;;;1.10;;
68744;SDS011;66104;45.456;11.064;2023-04-24T06:41:33;1.90;;;1.20;;
68744;SDS011;66104;45.456;11.064;2023-04-24T06:44:10;1.80;;;1.30;;
68744;SDS011;66104;45.456;11.064;2023-04-24T06:46:48;2.40;;;1.40;;
68744;SDS011;66104;45.456;11.064;2023-04-24T06:49:25;3.20;;;1.30;;
68744;SDS011;66104;45.456;11.064;2023-04-24T06:52:01;1.80;;;1.00;;
68744;SDS011;66104;45.456;11.064;2023-04-24T06:54:41;2.20;;;1.40;;
68744;SDS011;66104;45.456;11.064;2023-04-24T06:57:17;1.80;;;1.30;;
68744;SDS011;66104;45.456;11.064;2023-04-24T06:59:54;3.80;;;1.40;;
68744;SDS011;66104;45.456;11.064;2023-04-24T07:02:31;3.00;;;1.80;;
68744;SDS011;66104;45.456;11.064;2023-04-24T07:05:08;3.20;;;1.80;;
68744;SDS011;66104;45.456;11.064;2023-04-24T07:07:47;5.30;;;1.90;;
68744;SDS011;66104;45.456;11.064;2023-04-24T07:10:24;3.90;;;2.20;;
68744;SDS011;66104;45.456;11.064;2023-04-24T07:13:01;3.60;;;2.30;;
68744;SDS011;66104;45.456;11.064;2023-04-24T07:15:38;4.00;;;2.50;;
68744;SDS011;66104;45.456;11.064;2023-04-24T07:18:15;4.30;;;2.30;;
68744;SDS011;66104;45.456;11.064;2023-04-24T07:20:52;3.00;;;2.20;;
68744;SDS011;66104;45.456;11.064;2023-04-24T07:23:29;4.50;;;2.90;;
68744;SDS011;66104;45.456;11.064;2023-04-24T07:26:06;4.00;;;2.70;;
68744;SDS011;66104;45.456;11.064;2023-04-24T07:28:43;4.50;;;3.00;;
68744;SDS011;66104;45.456;11.064;2023-04-24T07:31:21;4.50;;;3.20;;
68744;SDS011;66104;45.456;11.064;2023-04-24T07:33:58;5.00;;;3.30;;
68744;SDS011;66104;45.456;11.064;2023-04-24T07:36:35;5.60;;;3.30;;
68744;SDS011;66104;45.456;11.064;2023-04-24T07:39:11;5.00;;;3.30;;
68744;SDS011;66104;45.456;11.064;2023-04-24T07:41:48;3.60;;;2.70;;
68744;SDS011;66104;45.456;11.064;2023-04-24T07:44:25;3.90;;;2.90;;
68744;SDS011;66104;45.456;11.064;2023-04-24T07:47:03;6.00;;;3.40;;
68744;SDS011;66104;45.456;11.064;2023-04-24T07:49:43;4.20;;;3.00;;
68744;SDS011;66104;45.456;11.064;2023-04-24T07:52:23;4.50;;;3.10;;
68744;SDS011;66104;45.456;11.064;2023-04-24T07:55:00;4.40;;;3.10;;
68744;SDS011;66104;45.456;11.064;2023-04-24T07:57:38;5.10;;;3.30;;
68744;SDS011;66104;45.456;11.064;2023-04-24T08:00:17;4.70;;;3.40;;
68744;SDS011;66104;45.456;11.064;2023-04-24T08:02:54;5.00;;;3.50;;
68744;SDS011;66104;45.456;11.064;2023-04-24T08:05:33;4.50;;;3.30;;
68744;SDS011;66104;45.456;11.064;2023-04-24T08:08:11;5.20;;;3.40;;
68744;SDS011;66104;45.456;11.064;2023-04-24T08:10:48;4.20;;;3.10;;
68744;SDS011;66104;45.456;11.064;2023-04-24T08:13:25;5.20;;;2.80;;
68744;SDS011;66104;45.456;11.064;2023-04-24T08:16:03;3.60;;;2.70;;
68744;SDS011;66104;45.456;11.064;2023-04-24T08:18:40;3.80;;;2.50;;
68744;SDS011;66104;45.456;11.064;2023-04-24T08:21:17;4.20;;;2.30;;
68744;SDS011;66104;45.456;11.064;2023-04-24T08:23:57;3.10;;;2.10;;
68744;SDS011;66104;45.456;11.064;2023-04-24T08:26:36;2.40;;;1.50;;
68744;SDS011;66104;45.456;11.064;2023-04-24T08:29:13;1.80;;;1.20;;
68744;SDS011;66104;45.456;11.064;2023-04-24T08:31:50;1.60;;;1.10;;
68744;SDS011;66104;45.456;11.064;2023-04-24T08:34:27;1.20;;;0.90;;
68744;SDS011;66104;45.456;11.064;2023-04-24T08:37:04;1.50;;;1.10;;
68744;SDS011;66104;45.456;11.064;2023-04-24T08:39:41;3.10;;;1.30;;
68744;SDS011;66104;45.456;11.064;2023-04-24T08:42:19;2.70;;;1.30;;
68744;SDS011;66104;45.456;11.064;2023-04-24T08:44:56;2.00;;;1.10;;
68744;SDS011;66104;45.456;11.064;2023-04-24T08:47:34;1.50;;;0.80;;
68744;SDS011;66104;45.456;11.064;2023-04-24T08:50:12;1.40;;;0.90;;
68744;SDS011;66104;45.456;11.064;2023-04-24T08:52:51;2.10;;;1.20;;
68744;SDS011;66104;45.456;11.064;2023-04-24T08:55:28;2.30;;;1.10;;
68744;SDS011;66104;45.456;11.064;2023-04-24T08:58:07;1.30;;;1.00;;
68744;SDS011;66104;45.456;11.064;2023-04-24T09:00:45;1.40;;;1.00;;
68744;SDS011;66104;45.456;11.064;2023-04-24T09:03:22;1.20;;;0.90;;
68744;SDS011;66104;45.456;11.064;2023-04-24T09:06:01;1.10;;;0.80;;
68744;SDS011;66104;45.456;11.064;2023-04-24T09:08:41;1.50;;;0.90;;
68744;SDS011;66104;45.456;11.064;2023-04-24T09:11:20;1.40;;;1.00;;
68744;SDS011;66104;45.456;11.064;2023-04-24T09:13:59;1.30;;;0.90;;
68744;SDS011;66104;45.456;11.064;2023-04-24T09:16:37;2.00;;;0.90;;
68744;SDS011;66104;45.456;11.064;2023-04-24T09:19:15;1.10;;;0.90;;
68744;SDS011;66104;45.456;11.064;2023-04-24T09:21:54;1.10;;;0.90;;
68744;SDS011;66104;45.456;11.064;2023-04-24T09:24:31;2.60;;;0.90;;
68744;SDS011;66104;45.456;11.064;2023-04-24T09:27:10;1.10;;;0.80;;
68744;SDS011;66104;45.456;11.064;2023-04-24T09:29:58;1.50;;;0.90;;
68744;SDS011;66104;45.456;11.064;2023-04-24T09:32:35;2.00;;;1.30;;
68744;SDS011;66104;45.456;11.064;2023-04-24T09:35:15;2.70;;;1.10;;
68744;SDS011;66104;45.456;11.064;2023-04-24T09:37:52;2.40;;;1.20;;
68744;SDS011;66104;45.456;11.064;2023-04-24T09:40:31;1.90;;;1.10;;
68744;SDS011;66104;45.456;11.064;2023-04-24T09:43:13;1.70;;;1.20;;
68744;SDS011;66104;45.456;11.064;2023-04-24T09:45:49;2.40;;;1.10;;
68744;SDS011;66104;45.456;11.064;2023-04-24T09:48:38;2.50;;;1.20;;
68744;SDS011;66104;45.456;11.064;2023-04-24T09:51:15;2.00;;;1.10;;
68744;SDS011;66104;45.456;11.064;2023-04-24T09:53:57;2.10;;;1.10;;
68744;SDS011;66104;45.456;11.064;2023-04-24T09:56:36;1.60;;;1.10;;
68744;SDS011;66104;45.456;11.064;2023-04-24T09:59:16;1.90;;;1.20;;
68744;SDS011;66104;45.456;11.064;2023-04-24T10:01:54;2.40;;;1.10;;
68744;SDS011;66104;45.456;11.064;2023-04-24T10:04:32;4.50;;;1.70;;
68744;SDS011;66104;45.456;11.064;2023-04-24T10:07:10;2.50;;;1.20;;
68744;SDS011;66104;45.456;11.064;2023-04-24T10:09:47;2.80;;;1.10;;
68744;SDS011;66104;45.456;11.064;2023-04-24T10:12:25;3.90;;;1.30;;
68744;SDS011;66104;45.456;11.064;2023-04-24T10:15:04;2.60;;;1.20;;
68744;SDS011;66104;45.456;11.064;2023-04-24T10:17:45;4.20;;;1.20;;
68744;SDS011;66104;45.456;11.064;2023-04-24T10:20:26;3.30;;;1.20;;
68744;SDS011;66104;45.456;11.064;2023-04-24T10:23:05;2.70;;;1.50;;
68744;SDS011;66104;45.456;11.064;2023-04-24T10:25:47;3.70;;;1.70;;
68744;SDS011;66104;45.456;11.064;2023-04-24T10:28:26;2.90;;;1.70;;
68744;SDS011;66104;45.456;11.064;2023-04-24T10:31:03;3.90;;;1.60;;
68744;SDS011;66104;45.456;11.064;2023-04-24T10:33:42;2.80;;;1.30;;
68744;SDS011;66104;45.456;11.064;2023-04-24T10:36:21;2.20;;;1.50;;
68744;SDS011;66104;45.456;11.064;2023-04-24T10:39:02;3.40;;;1.80;;
68744;SDS011;66104;45.456;11.064;2023-04-24T10:41:42;2.60;;;1.60;;
68744;SDS011;66104;45.456;11.064;2023-04-24T10:44:20;2.80;;;1.40;;
68744;SDS011;66104;45.456;11.064;2023-04-24T10:46:58;2.50;;;1.20;;
68744;SDS011;66104;45.456;11.064;2023-04-24T10:49:35;2.80;;;1.80;;
68744;SDS011;66104;45.456;11.064;2023-04-24T10:52:13;2.20;;;1.30;;
68744;SDS011;66104;45.456;11.064;2023-04-24T10:54:50;2.10;;;1.20;;
68744;SDS011;66104;45.456;11.064;2023-04-24T10:57:29;2.20;;;1.40;;
68744;SDS011;66104;45.456;11.064;2023-04-24T11:00:24;2.60;;;1.20;;
68744;SDS011;66104;45.456;11.064;2023-04-24T11:03:03;2.30;;;1.30;;
68744;SDS011;66104;45.456;11.064;2023-04-24T11:05:55;1.80;;;1.10;;
68744;SDS011;66104;45.456;11.064;2023-04-24T11:08:36;2.90;;;1.20;;
68744;SDS011;66104;45.456;11.064;2023-04-24T11:11:17;2.10;;;1.00;;
68744;SDS011;66104;45.456;11.064;2023-04-24T11:14:18;2.40;;;1.00;;
68744;SDS011;66104;45.456;11.064;2023-04-24T11:16:56;1.50;;;0.90;;
68744;SDS011;66104;45.456;11.064;2023-04-24T11:19:36;2.40;;;1.30;;
68744;SDS011;66104;45.456;11.064;2023-04-24T11:22:16;2.00;;;1.30;;
68744;SDS011;66104;45.456;11.064;2023-04-24T11:24:56;2.10;;;1.30;;
68744;SDS011;66104;45.456;11.064;2023-04-24T11:27:43;1.50;;;1.10;;
68744;SDS011;66104;45.456;11.064;2023-04-24T11:30:21;1.70;;;1.10;;
68744;SDS011;66104;45.456;11.064;2023-04-24T11:33:06;1.70;;;1.10;;
68744;SDS011;66104;45.456;11.064;2023-04-24T11:35:43;3.40;;;1.30;;
68744;SDS011;66104;45.456;11.064;2023-04-24T11:38:21;2.30;;;1.30;;
68744;SDS011;66104;45.456;11.064;2023-04-24T11:40:59;2.30;;;1.40;;
68744;SDS011;66104;45.456;11.064;2023-04-24T11:43:38;2.90;;;1.50;;
68744;SDS011;66104;45.456;11.064;2023-04-24T11:46:19;2.60;;;1.40;;
68744;SDS011;66104;45.456;11.064;2023-04-24T11:48:57;2.90;;;1.50;;
68744;SDS011;66104;45.456;11.064;2023-04-24T11:51:34;7.40;;;1.80;;
68744;SDS011;66104;45.456;11.064;2023-04-24T11:54:23;2.70;;;1.40;;
68744;SDS011;66104;45.456;11.064;2023-04-24T11:57:00;2.10;;;1.30;;
68744;SDS011;66104;45.456;11.064;2023-04-24T11:59:40;1.20;;;0.90;;
68744;SDS011;66104;45.456;11.064;2023-04-24T12:02:24;1.70;;;0.90;;
68744;SDS011;66104;45.456;11.064;2023-04-24T12:05:02;1.90;;;1.00;;
68744;SDS011;66104;45.456;11.064;2023-04-24T12:07:44;1.50;;;1.00;;
68744;SDS011;66104;45.456;11.064;2023-04-24T12:10:25;1.70;;;1.10;;
68744;SDS011;66104;45.456;11.064;2023-04-24T12:13:03;2.00;;;1.10;;
68744;SDS011;66104;45.456;11.064;2023-04-24T12:15:44;1.40;;;1.00;;
68744;SDS011;66104;45.456;11.064;2023-04-24T12:18:24;1.70;;;0.90;;
68744;SDS011;66104;45.456;11.064;2023-04-24T12:21:16;1.40;;;0.90;;
68744;SDS011;66104;45.456;11.064;2023-04-24T12:23:58;1.30;;;0.90;;
68744;SDS011;66104;45.456;11.064;2023-04-24T12:26:34;1.50;;;0.80;;
68744;SDS011;66104;45.456;11.064;2023-04-24T12:29:21;1.30;;;0.90;;
68744;SDS011;66104;45.456;11.064;2023-04-24T12:31:58;1.70;;;1.10;;
68744;SDS011;66104;45.456;11.064;2023-04-24T12:34:34;1.20;;;0.80;;
68744;SDS011;66104;45.456;11.064;2023-04-24T12:37:13;1.70;;;0.70;;
68744;SDS011;66104;45.456;11.064;2023-04-24T12:40:04;1.10;;;0.90;;
68744;SDS011;66104;45.456;11.064;2023-04-24T12:42:47;1.30;;;0.80;;
68744;SDS011;66104;45.456;11.064;2023-04-24T12:45:27;1.30;;;0.80;;
68744;SDS011;66104;45.456;11.064;2023-04-24T12:48:05;1.60;;;0.90;;
68744;SDS011;66104;45.456;11.064;2023-04-24T12:50:43;1.50;;;1.00;;
68744;SDS011;66104;45.456;11.064;2023-04-24T12:53:20;1.70;;;1.20;;
68744;SDS011;66104;45.456;11.064;2023-04-24T12:55:57;2.30;;;1.10;;
68744;SDS011;66104;45.456;11.064;2023-04-24T12:58:34;2.40;;;1.20;;
68744;SDS011;66104;45.456;11.064;2023-04-24T13:01:10;2.50;;;1.30;;
68744;SDS011;66104;45.456;11.064;2023-04-24T13:03:47;2.20;;;1.20;;
68744;SDS011;66104;45.456;11.064;2023-04-24T13:06:24;1.70;;;1.10;;
68744;SDS011;66104;45.456;11.064;2023-04-24T13:09:01;1.70;;;1.20;;
68744;SDS011;66104;45.456;11.064;2023-04-24T13:11:38;1.70;;;1.10;;
68744;SDS011;66104;45.456;11.064;2023-04-24T13:14:15;2.60;;;1.00;;
68744;SDS011;66104;45.456;11.064;2023-04-24T13:16:53;1.40;;;0.80;;
68744;SDS011;66104;45.456;11.064;2023-04-24T13:19:34;1.40;;;1.00;;
68744;SDS011;66104;45.456;11.064;2023-04-24T13:22:13;2.20;;;1.10;;
68744;SDS011;66104;45.456;11.064;2023-04-24T13:24:50;1.70;;;1.00;;
68744;SDS011;66104;45.456;11.064;2023-04-24T13:27:27;1.30;;;1.00;;
68744;SDS011;66104;45.456;11.064;2023-04-24T13:30:06;1.60;;;1.00;;
68744;SDS011;66104;45.456;11.064;2023-04-24T13:32:47;1.60;;;1.00;;
68744;SDS011;66104;45.456;11.064;2023-04-24T13:35:25;2.50;;;1.20;;
68744;SDS011;66104;45.456;11.064;2023-04-24T13:38:01;2.60;;;1.30;;
68744;SDS011;66104;45.456;11.064;2023-04-24T13:40:40;2.00;;;1.20;;
68744;SDS011;66104;45.456;11.064;2023-04-24T13:43:16;1.70;;;1.00;;
68744;SDS011;66104;45.456;11.064;2023-04-24T13:45:54;1.80;;;1.30;;
68744;SDS011;66104;45.456;11.064;2023-04-24T13:48:33;2.70;;;1.40;;
68744;SDS011;66104;45.456;11.064;2023-04-24T13:51:11;1.70;;;1.10;;
68744;SDS011;66104;45.456;11.064;2023-04-24T13:53:49;2.50;;;1.10;;
68744;SDS011;66104;45.456;11.064;2023-04-24T13:56:26;2.70;;;1.40;;
68744;SDS011;66104;45.456;11.064;2023-04-24T13:59:05;2.40;;;1.60;;
68744;SDS011;66104;45.456;11.064;2023-04-24T14:01:42;3.20;;;1.50;;
68744;SDS011;66104;45.456;11.064;2023-04-24T14:04:19;3.00;;;1.40;;
68744;SDS011;66104;45.456;11.064;2023-04-24T14:06:56;3.60;;;1.90;;
68744;SDS011;66104;45.456;11.064;2023-04-24T14:09:34;2.40;;;1.60;;
68744;SDS011;66104;45.456;11.064;2023-04-24T14:12:10;5.40;;;1.70;;
68744;SDS011;66104;45.456;11.064;2023-04-24T14:14:50;3.50;;;1.80;;
68744;SDS011;66104;45.456;11.064;2023-04-24T14:17:28;3.30;;;1.60;;
68744;SDS011;66104;45.456;11.064;2023-04-24T14:20:04;3.60;;;1.60;;
68744;SDS011;66104;45.456;11.064;2023-04-24T14:22:42;3.10;;;1.50;;
68744;SDS011;66104;45.456;11.064;2023-04-24T14:25:21;2.90;;;1.60;;
68744;SDS011;66104;45.456;11.064;2023-04-24T14:27:58;2.30;;;1.50;;
68744;SDS011;66104;45.456;11.064;2023-04-24T14:30:36;2.30;;;1.30;;
68744;SDS011;66104;45.456;11.064;2023-04-24T14:33:14;2.60;;;1.40;;
68744;SDS011;66104;45.456;11.064;2023-04-24T14:35:51;2.90;;;1.50;;
68744;SDS011;66104;45.456;11.064;2023-04-24T14:38:29;3.20;;;1.50;;
68744;SDS011;66104;45.456;11.064;2023-04-24T14:41:06;2.70;;;1.60;;
68744;SDS011;66104;45.456;11.064;2023-04-24T14:43:44;2.00;;;1.30;;
68744;SDS011;66104;45.456;11.064;2023-04-24T14:46:21;2.80;;;1.60;;
68744;SDS011;66104;45.456;11.064;2023-04-24T14:48:59;3.80;;;1.40;;
68744;SDS011;66104;45.456;11.064;2023-04-24T14:51:35;3.30;;;1.50;;
68744;SDS011;66104;45.456;11.064;2023-04-24T14:54:12;4.20;;;1.50;;
68744;SDS011;66104;45.456;11.064;2023-04-24T14:56:50;2.80;;;1.50;;
68744;SDS011;66104;45.456;11.064;2023-04-24T14:59:29;2.80;;;1.60;;
68744;SDS011;66104;45.456;11.064;2023-04-24T15:02:06;2.30;;;1.40;;
68744;SDS011;66104;45.456;11.064;2023-04-24T15:04:47;3.60;;;1.80;;
68744;SDS011;66104;45.456;11.064;2023-04-24T15:07:24;2.70;;;1.50;;
68744;SDS011;66104;45.456;11.064;2023-04-24T15:10:01;2.60;;;1.70;;
68744;SDS011;66104;45.456;11.064;2023-04-24T15:12:40;3.10;;;1.70;;
68744;SDS011;66104;45.456;11.064;2023-04-24T15:15:16;4.00;;;2.00;;
68744;SDS011;66104;45.456;11.064;2023-04-24T15:17:54;4.70;;;2.30;;
68744;SDS011;66104;45.456;11.064;2023-04-24T15:20:32;4.50;;;2.60;;
68744;SDS011;66104;45.456;11.064;2023-04-24T15:23:09;4.20;;;2.40;;
68744;SDS011;66104;45.456;11.064;2023-04-24T15:25:46;3.10;;;2.40;;
68744;SDS011;66104;45.456;11.064;2023-04-24T15:28:22;4.60;;;2.30;;
68744;SDS011;66104;45.456;11.064;2023-04-24T15:31:00;4.50;;;2.90;;
68744;SDS011;66104;45.456;11.064;2023-04-24T15:33:37;4.50;;;2.70;;
68744;SDS011;66104;45.456;11.064;2023-04-24T15:36:15;4.40;;;2.70;;